createdAt,value
2023-02-16T00:01:48.400Z,10.30
2023-02-16T00:04:20.805Z,10.30
2023-02-16T00:06:49.650Z,10.30
2023-02-16T00:09:18.861Z,10.20
2023-02-16T00:12:05.110Z,10.20
2023-02-16T00:14:36.188Z,10.20
2023-02-16T00:17:06.776Z,10.20
2023-02-16T00:19:37.399Z,10.30
2023-02-16T00:22:07.238Z,10.10
2023-02-16T00:24:36.041Z,10.10
2023-02-16T00:27:04.383Z,10.10
2023-02-16T00:29:34.603Z,10.10
2023-02-16T00:32:06.652Z,10.10
2023-02-16T00:34:36.927Z,10.10
2023-02-16T00:37:07.234Z,10.10
2023-02-16T00:39:36.292Z,10.10
2023-02-16T00:42:06.997Z,10.10
2023-02-16T00:44:38.170Z,10.10
2023-02-16T00:47:19.937Z,10.10
2023-02-16T00:49:48.860Z,10.00
2023-02-16T00:52:31.304Z,10.00
2023-02-16T00:55:00.963Z,10.00
2023-02-16T00:57:33.253Z,10.00
2023-02-16T01:00:06.397Z,10.00
2023-02-16T01:02:37.089Z,10.00
2023-02-16T01:05:05.915Z,9.90
2023-02-16T01:07:51.615Z,9.90
2023-02-16T01:10:37.941Z,10.00
2023-02-16T01:13:06.655Z,9.90
2023-02-16T01:15:36.911Z,9.90
2023-02-16T01:18:06.867Z,9.90
2023-02-16T01:20:37.060Z,9.90
2023-02-16T01:23:05.545Z,9.80
2023-02-16T01:25:34.100Z,9.80
2023-02-16T01:28:02.354Z,9.80
2023-02-16T01:30:30.896Z,9.80
2023-02-16T01:32:59.224Z,9.80
2023-02-16T01:35:34.158Z,9.80
2023-02-16T01:38:02.620Z,9.70
2023-02-16T01:40:39.368Z,9.70
2023-02-16T01:43:19.723Z,9.70
2023-02-16T01:45:56.670Z,9.70
2023-02-16T01:48:29.793Z,9.70
2023-02-16T01:51:06.450Z,9.70
2023-02-16T01:53:40.066Z,9.70
2023-02-16T01:56:17.119Z,9.70
2023-02-16T01:58:49.133Z,9.80
2023-02-16T02:01:44.990Z,9.60
2023-02-16T02:04:40.557Z,9.60
2023-02-16T02:07:18.994Z,9.60
2023-02-16T02:09:58.870Z,9.60
2023-02-16T02:12:33.628Z,9.60
2023-02-16T02:15:02.427Z,9.60
2023-02-16T02:17:31.011Z,9.60
2023-02-16T02:20:06.631Z,9.60
2023-02-16T02:23:21.116Z,9.50
2023-02-16T02:26:23.149Z,9.50
2023-02-16T02:29:03.501Z,9.50
2023-02-16T02:31:45.441Z,9.50
2023-02-16T02:34:29.657Z,9.50
2023-02-16T02:37:07.357Z,9.50
2023-02-16T02:39:46.064Z,9.50
2023-02-16T02:42:20.484Z,9.50
2023-02-16T02:44:58.355Z,9.40
2023-02-16T02:47:39.247Z,9.40
2023-02-16T02:50:40.289Z,9.40
2023-02-16T02:53:13.817Z,9.40
2023-02-16T02:56:04.324Z,9.40
2023-02-16T02:58:53.073Z,9.40
2023-02-16T03:01:24.869Z,9.40
2023-02-16T03:03:58.097Z,9.40
2023-02-16T03:06:30.459Z,9.40
2023-02-16T03:09:05.623Z,9.40
2023-02-16T03:11:51.684Z,9.40
2023-02-16T03:14:23.803Z,9.30
2023-02-16T03:17:15.111Z,9.30
2023-02-16T03:20:03.348Z,9.30
2023-02-16T03:22:50.431Z,9.30
2023-02-16T03:25:37.085Z,9.30
2023-02-16T03:28:26.544Z,9.30
2023-02-16T03:30:56.731Z,9.30
2023-02-16T03:33:27.214Z,9.50
2023-02-16T03:35:55.819Z,9.20
2023-02-16T03:38:25.352Z,9.20
2023-02-16T03:40:54.192Z,9.40
2023-02-16T03:43:26.830Z,9.20
2023-02-16T03:45:55.468Z,9.20
2023-02-16T03:48:23.798Z,9.10
2023-02-16T03:50:53.586Z,9.20
2023-02-16T03:53:22.011Z,9.20
2023-02-16T03:55:50.922Z,9.50
2023-02-16T03:58:24.121Z,9.10
2023-02-16T04:00:53.006Z,9.10
2023-02-16T04:03:21.307Z,9.10
2023-02-16T04:05:50.553Z,9.10
2023-02-16T04:08:20.227Z,9.10
2023-02-16T04:10:48.927Z,9.10
2023-02-16T04:13:16.442Z,9.10
2023-02-16T04:15:44.664Z,9.10
2023-02-16T04:18:13.281Z,9.20
2023-02-16T04:20:41.825Z,9.00
2023-02-16T04:23:10.318Z,9.10
2023-02-16T04:25:39.939Z,9.00
2023-02-16T04:28:08.197Z,9.00
2023-02-16T04:30:36.564Z,9.00
2023-02-16T04:33:05.186Z,9.00
2023-02-16T04:35:33.518Z,9.00
2023-02-16T04:38:01.802Z,9.00
2023-02-16T04:40:30.211Z,9.00
2023-02-16T04:43:00.104Z,9.00
2023-02-16T04:45:28.460Z,9.00
2023-02-16T04:47:56.879Z,9.00
2023-02-16T04:50:25.238Z,9.00
2023-02-16T04:52:53.853Z,9.10
2023-02-16T04:55:22.172Z,9.00
2023-02-16T04:57:50.546Z,9.00
2023-02-16T05:00:21.755Z,9.00
2023-02-16T05:02:50.220Z,9.00
2023-02-16T05:05:18.666Z,9.00
2023-02-16T05:07:47.238Z,8.90
2023-02-16T05:10:15.726Z,8.90
2023-02-16T05:13:01.275Z,8.90
2023-02-16T05:15:31.019Z,8.90
2023-02-16T05:17:59.560Z,8.90
2023-02-16T05:20:41.860Z,8.90
2023-02-16T05:23:10.449Z,8.90
2023-02-16T05:25:38.743Z,8.90
2023-02-16T05:28:07.123Z,8.90
2023-02-16T05:30:36.856Z,8.90
2023-02-16T05:33:05.324Z,8.90
2023-02-16T05:35:41.386Z,8.90
2023-02-16T05:38:10.929Z,8.90
2023-02-16T05:40:43.577Z,8.80
2023-02-16T05:43:16.060Z,8.80
2023-02-16T05:45:50.955Z,8.90
2023-02-16T05:48:22.299Z,9.20
2023-02-16T05:50:54.734Z,8.90
2023-02-16T05:53:23.026Z,8.90
2023-02-16T05:55:51.630Z,8.80
2023-02-16T05:58:19.994Z,9.10
2023-02-16T06:00:49.844Z,8.80
2023-02-16T06:03:18.190Z,9.10
2023-02-16T06:05:46.564Z,8.80
2023-02-16T06:08:14.866Z,8.80
2023-02-16T06:10:43.370Z,8.80
2023-02-16T06:13:11.656Z,8.80
2023-02-16T06:15:39.948Z,8.80
2023-02-16T06:18:11.327Z,9.00
2023-02-16T06:20:40.090Z,8.80
2023-02-16T06:23:11.113Z,8.80
2023-02-16T06:25:42.461Z,8.80
2023-02-16T06:28:11.145Z,8.80
2023-02-16T06:30:39.641Z,8.90
2023-02-16T06:33:09.388Z,8.80
2023-02-16T06:35:37.885Z,8.80
2023-02-16T06:38:06.218Z,8.80
2023-02-16T06:40:34.652Z,8.90
2023-02-16T06:43:03.478Z,8.80
2023-02-16T06:45:32.007Z,8.80
2023-02-16T06:48:00.674Z,8.80
2023-02-16T06:50:30.573Z,8.80
2023-02-16T06:52:58.894Z,8.80
2023-02-16T06:55:27.320Z,8.90
2023-02-16T06:57:55.692Z,9.00
2023-02-16T07:00:24.118Z,8.80
2023-02-16T07:02:52.639Z,8.80
2023-02-16T07:05:20.971Z,8.80
2023-02-16T07:07:50.826Z,8.80
2023-02-16T07:10:20.098Z,8.80
2023-02-16T07:12:49.427Z,8.90
2023-02-16T07:15:17.822Z,8.80
2023-02-16T07:17:46.067Z,8.80
2023-02-16T07:20:14.775Z,8.80
2023-02-16T07:22:43.067Z,8.80
2023-02-16T07:25:12.802Z,8.90
2023-02-16T07:27:41.060Z,9.10
2023-02-16T07:30:11.117Z,8.80
2023-02-16T07:32:42.329Z,8.90
2023-02-16T07:35:11.328Z,8.90
2023-02-16T07:37:39.833Z,8.90
2023-02-16T07:40:09.417Z,8.90
2023-02-16T07:42:39.285Z,8.90
2023-02-16T07:45:08.904Z,8.90
2023-02-16T07:47:37.377Z,8.90
2023-02-16T07:50:06.511Z,8.90
2023-02-16T07:52:35.788Z,8.90
2023-02-16T07:55:05.345Z,8.90
2023-02-16T07:57:34.180Z,8.90
2023-02-16T08:00:05.468Z,8.90
2023-02-16T08:02:41.078Z,9.00
2023-02-16T08:05:09.640Z,8.90
2023-02-16T08:07:38.480Z,9.00
2023-02-16T08:10:08.296Z,9.00
2023-02-16T08:12:36.586Z,9.00
2023-02-16T08:15:07.089Z,9.00
2023-02-16T08:17:38.677Z,9.00
2023-02-16T08:20:09.835Z,9.10
2023-02-16T08:22:38.229Z,9.10
2023-02-16T08:25:07.277Z,9.10
2023-02-16T08:27:36.327Z,9.10
2023-02-16T08:30:12.670Z,9.10
2023-02-16T08:32:41.389Z,9.10
2023-02-16T08:35:10.139Z,9.10
2023-02-16T08:37:39.780Z,9.20
2023-02-16T08:40:10.545Z,9.20
2023-02-16T08:42:39.243Z,9.10
2023-02-16T08:45:09.911Z,9.20
2023-02-16T08:47:38.280Z,9.20
2023-02-16T08:50:08.104Z,9.20
2023-02-16T08:52:37.432Z,9.20
2023-02-16T08:55:06.863Z,9.20
2023-02-16T08:57:35.908Z,9.20
2023-02-16T09:00:23.723Z,9.20
2023-02-16T09:02:54.046Z,9.20
2023-02-16T09:05:22.604Z,9.20
2023-02-16T09:07:51.758Z,9.20
2023-02-16T09:10:22.863Z,9.50
2023-02-16T09:12:51.283Z,9.30
2023-02-16T09:15:20.760Z,9.30
2023-02-16T09:17:49.305Z,9.40
2023-02-16T09:20:20.371Z,9.30
2023-02-16T09:22:48.751Z,9.40
2023-02-16T09:25:17.954Z,9.40
2023-02-16T09:27:46.825Z,9.40
2023-02-16T09:30:15.860Z,9.40
2023-02-16T09:32:44.350Z,9.50
2023-02-16T09:35:12.754Z,9.50
2023-02-16T09:37:42.719Z,9.50
2023-02-16T09:40:14.158Z,9.50
2023-02-16T09:42:55.352Z,9.60
2023-02-16T09:45:26.891Z,9.50
2023-02-16T09:47:55.496Z,9.60
2023-02-16T09:50:50.302Z,9.60
2023-02-16T09:53:45.126Z,9.60
2023-02-16T09:56:23.109Z,9.70
2023-02-16T09:58:57.292Z,9.60
2023-02-16T10:01:32.550Z,9.60
2023-02-16T10:04:16.668Z,9.70
2023-02-16T10:06:58.515Z,9.70
2023-02-16T10:09:30.273Z,9.70
2023-02-16T10:12:04.792Z,10.10
2023-02-16T10:14:37.236Z,9.70
2023-02-16T10:17:14.062Z,9.70
2023-02-16T10:19:46.891Z,9.80
2023-02-16T10:22:18.998Z,9.80
2023-02-16T10:25:00.429Z,9.80
2023-02-16T10:27:36.021Z,9.80
2023-02-16T10:30:11.009Z,9.80
2023-02-16T10:32:51.977Z,9.80
2023-02-16T10:35:27.221Z,9.80
2023-02-16T10:38:04.333Z,9.80
2023-02-16T10:40:44.842Z,9.90
2023-02-16T10:43:18.270Z,9.90
2023-02-16T10:45:58.139Z,9.90
2023-02-16T10:48:27.257Z,9.90
2023-02-16T10:51:01.376Z,9.90
2023-02-16T10:53:38.280Z,9.90
2023-02-16T10:56:32.215Z,10.00
2023-02-16T10:59:01.953Z,10.00
2023-02-16T11:01:37.319Z,10.00
2023-02-16T11:04:06.061Z,10.00
2023-02-16T11:06:36.617Z,10.00
2023-02-16T11:09:06.848Z,10.10
2023-02-16T11:11:41.110Z,10.10
2023-02-16T11:14:23.153Z,10.10
2023-02-16T11:17:08.649Z,10.10
2023-02-16T11:19:38.325Z,10.10
2023-02-16T11:22:09.277Z,10.20
2023-02-16T11:24:39.477Z,10.20
2023-02-16T11:27:22.014Z,10.20
2023-02-16T11:29:51.497Z,10.20
2023-02-16T11:32:22.575Z,10.20
2023-02-16T11:34:52.297Z,10.30
2023-02-16T11:37:28.341Z,10.30
2023-02-16T11:40:00.454Z,10.30
2023-02-16T11:42:36.025Z,10.30
2023-02-16T11:45:06.662Z,10.30
2023-02-16T11:47:37.715Z,10.30
2023-02-16T11:50:23.800Z,10.30
2023-02-16T11:52:54.185Z,10.40
2023-02-16T11:55:27.880Z,10.30
2023-02-16T11:58:17.450Z,10.40
2023-02-16T12:00:57.726Z,10.40
2023-02-16T12:03:51.537Z,10.40
2023-02-16T12:06:32.111Z,10.40
2023-02-16T12:09:15.912Z,10.40
2023-02-16T12:11:57.634Z,10.40
2023-02-16T12:14:42.443Z,10.40
2023-02-16T12:17:27.889Z,10.50
2023-02-16T12:20:03.999Z,10.50
2023-02-16T12:22:41.469Z,10.50
2023-02-16T12:25:27.531Z,10.50
2023-02-16T12:28:05.431Z,10.50
2023-02-16T12:30:47.178Z,10.50
2023-02-16T12:33:37.284Z,10.50
2023-02-16T12:36:32.938Z,10.60
2023-02-16T12:39:10.773Z,10.60
2023-02-16T12:41:55.073Z,10.60
2023-02-16T12:44:43.078Z,10.60
2023-02-16T12:47:19.549Z,10.60
2023-02-16T12:49:53.712Z,10.60
2023-02-16T12:52:31.733Z,10.70
2023-02-16T12:55:12.458Z,10.60
2023-02-16T12:57:50.998Z,10.70
2023-02-16T13:00:27.009Z,11.00
2023-02-16T13:03:05.011Z,10.70
2023-02-16T13:05:38.612Z,10.70
2023-02-16T13:08:16.848Z,10.70
2023-02-16T13:10:55.314Z,10.80
2023-02-16T13:13:27.744Z,10.80
2023-02-16T13:16:03.388Z,10.80
2023-02-16T13:18:38.202Z,10.80
2023-02-16T13:21:12.183Z,10.80
2023-02-16T13:23:53.706Z,10.80
2023-02-16T13:26:43.931Z,10.80
2023-02-16T13:29:39.565Z,10.90
2023-02-16T13:32:23.149Z,10.90
2023-02-16T13:35:13.701Z,10.90
2023-02-16T13:37:59.566Z,10.90
2023-02-16T13:41:00.864Z,10.90
2023-02-16T13:43:33.891Z,10.90
2023-02-16T13:46:07.825Z,10.90
2023-02-16T13:48:40.425Z,10.90
2023-02-16T13:51:14.010Z,11.00
2023-02-16T13:53:46.002Z,11.00
2023-02-16T13:56:22.789Z,10.80
2023-02-16T13:58:52.146Z,11.00
2023-02-16T14:01:43.176Z,11.00
2023-02-16T14:04:53.580Z,11.10
2023-02-16T14:07:35.988Z,11.10
2023-02-16T14:10:05.557Z,11.10
2023-02-16T14:12:39.880Z,11.20
2023-02-16T14:15:19.433Z,11.20
2023-02-16T14:17:48.165Z,11.20
2023-02-16T14:20:31.287Z,11.30
2023-02-16T14:23:01.332Z,11.30
2023-02-16T14:25:39.569Z,11.30
2023-02-16T14:28:47.961Z,11.30
2023-02-16T14:31:19.601Z,11.30
2023-02-16T14:33:54.751Z,11.30
2023-02-16T14:36:27.024Z,11.40
2023-02-16T14:38:59.389Z,11.40
2023-02-16T14:41:30.611Z,11.50
2023-02-16T14:44:28.791Z,11.50
2023-02-16T14:47:06.467Z,11.50
2023-02-16T14:50:03.766Z,11.50
2023-02-16T14:52:59.859Z,11.50
2023-02-16T14:56:01.707Z,11.60
2023-02-16T14:58:34.762Z,11.60
2023-02-16T15:01:12.309Z,11.60
2023-02-16T15:03:46.327Z,11.60
2023-02-16T15:06:30.716Z,11.60
2023-02-16T15:09:01.332Z,11.70
2023-02-16T15:11:34.850Z,11.70
2023-02-16T15:14:09.945Z,11.70
2023-02-16T15:16:42.078Z,11.70
2023-02-16T15:19:17.386Z,11.70
2023-02-16T15:21:45.895Z,11.80
2023-02-16T15:24:24.119Z,11.80
2023-02-16T15:27:01.636Z,11.80
2023-02-16T15:29:31.308Z,11.80
2023-02-16T15:32:00.977Z,11.80
2023-02-16T15:34:34.817Z,11.90
2023-02-16T15:37:20.675Z,11.80
2023-02-16T15:40:08.576Z,11.90
2023-02-16T15:42:43.384Z,11.90
2023-02-16T15:45:34.233Z,11.90
2023-02-16T15:48:24.856Z,11.90
2023-02-16T15:50:55.639Z,11.90
2023-02-16T15:53:32.306Z,11.90
2023-02-16T15:56:05.618Z,11.90
2023-02-16T15:58:35.858Z,11.90
2023-02-16T16:01:04.749Z,11.90
2023-02-16T16:03:33.382Z,11.90
2023-02-16T16:06:05.225Z,11.90
2023-02-16T16:08:34.309Z,11.90
2023-02-16T16:11:03.087Z,11.90
2023-02-16T16:13:32.632Z,11.90
2023-02-16T16:16:04.690Z,12.00
2023-02-16T16:18:41.894Z,11.90
2023-02-16T16:21:22.336Z,12.30
2023-02-16T16:23:59.538Z,11.90
2023-02-16T16:26:29.459Z,11.90
2023-02-16T16:28:58.063Z,12.00
2023-02-16T16:31:43.799Z,11.90
2023-02-16T16:34:33.336Z,12.00
2023-02-16T16:37:03.930Z,11.90
2023-02-16T16:39:35.084Z,11.90
2023-02-16T16:42:24.919Z,11.90
2023-02-16T16:45:04.013Z,11.90
2023-02-16T16:47:38.236Z,11.90
2023-02-16T16:50:27.180Z,12.00
2023-02-16T16:52:56.266Z,12.00
2023-02-16T16:55:28.141Z,11.90
2023-02-16T16:57:58.660Z,12.00
2023-02-16T17:00:30.806Z,12.00
2023-02-16T17:03:00.637Z,11.90
2023-02-16T17:05:29.232Z,11.90
2023-02-16T17:07:57.729Z,11.90
2023-02-16T17:10:26.703Z,12.00
2023-02-16T17:12:59.024Z,12.00
2023-02-16T17:15:35.323Z,12.00
2023-02-16T17:18:06.412Z,12.00
2023-02-16T17:20:35.361Z,12.00
2023-02-16T17:23:06.162Z,12.00
2023-02-16T17:25:36.630Z,12.00
2023-02-16T17:28:06.351Z,12.00
2023-02-16T17:30:35.318Z,12.00
2023-02-16T17:33:07.076Z,11.90
2023-02-16T17:35:37.464Z,12.00
2023-02-16T17:38:09.103Z,12.00
2023-02-16T17:40:37.601Z,12.00
2023-02-16T17:43:12.184Z,11.80
2023-02-16T17:45:40.632Z,12.00
2023-02-16T17:48:15.771Z,12.00
2023-02-16T17:50:44.335Z,12.00
2023-02-16T17:53:17.065Z,12.00
2023-02-16T17:55:46.714Z,12.00
2023-02-16T17:58:15.908Z,12.00
2023-02-16T18:00:45.587Z,12.00
2023-02-16T18:03:15.774Z,12.00
2023-02-16T18:05:44.136Z,12.00
2023-02-16T18:08:12.824Z,12.00
2023-02-16T18:10:44.672Z,11.90
2023-02-16T18:13:13.917Z,12.00
2023-02-16T18:15:45.206Z,12.00
2023-02-16T18:18:16.008Z,12.00
2023-02-16T18:20:45.733Z,12.00
2023-02-16T18:23:14.672Z,12.00
2023-02-16T18:25:44.197Z,12.00
2023-02-16T18:28:15.683Z,12.00
2023-02-16T18:30:44.202Z,12.00
2023-02-16T18:33:14.093Z,12.00
2023-02-16T18:35:42.789Z,12.00
2023-02-16T18:38:11.496Z,12.00
2023-02-16T18:40:42.142Z,12.00
2023-02-16T18:43:11.428Z,12.00
2023-02-16T18:45:40.208Z,12.00
2023-02-16T18:48:09.144Z,12.00
2023-02-16T18:50:39.186Z,12.00
2023-02-16T18:53:08.095Z,11.90
2023-02-16T18:55:36.723Z,11.90
2023-02-16T18:58:08.313Z,12.00
2023-02-16T19:00:37.689Z,11.90
2023-02-16T19:03:06.700Z,11.70
2023-02-16T19:05:35.456Z,11.90
2023-02-16T19:08:05.555Z,11.90
2023-02-16T19:10:33.998Z,12.10
2023-02-16T19:13:02.507Z,11.90
2023-02-16T19:15:30.950Z,11.90
2023-02-16T19:17:59.442Z,11.90
2023-02-16T19:20:29.723Z,11.90
2023-02-16T19:22:58.236Z,11.90
2023-02-16T19:25:29.389Z,11.90
2023-02-16T19:27:58.164Z,11.90
2023-02-16T19:30:26.589Z,11.80
2023-02-16T19:32:56.452Z,11.80
2023-02-16T19:35:25.517Z,11.90
2023-02-16T19:37:53.913Z,11.90
2023-02-16T19:40:22.578Z,11.90
2023-02-16T19:42:52.372Z,11.90
2023-02-16T19:45:20.972Z,11.90
2023-02-16T19:47:51.493Z,11.90
2023-02-16T19:50:20.027Z,11.90
2023-02-16T19:52:48.458Z,11.80
2023-02-16T19:55:17.054Z,11.90
2023-02-16T19:57:45.438Z,11.80
2023-02-16T20:00:15.911Z,11.80
2023-02-16T20:02:44.367Z,11.90
2023-02-16T20:05:13.647Z,11.90
2023-02-16T20:07:42.220Z,11.80
2023-02-16T20:10:11.108Z,11.80
2023-02-16T20:12:39.428Z,11.90
2023-02-16T20:15:14.099Z,11.90
2023-02-16T20:17:46.598Z,11.90
2023-02-16T20:20:15.273Z,11.90
2023-02-16T20:22:47.596Z,11.90
2023-02-16T20:25:18.857Z,11.80
2023-02-16T20:27:48.109Z,11.80
2023-02-16T20:30:30.345Z,11.90
2023-02-16T20:33:03.568Z,11.90
2023-02-16T20:35:35.339Z,11.80
2023-02-16T20:38:06.642Z,11.90
2023-02-16T20:40:35.013Z,12.20
2023-02-16T20:43:04.661Z,11.90
2023-02-16T20:45:33.117Z,11.90
2023-02-16T20:48:05.544Z,11.90
2023-02-16T20:50:33.946Z,11.90
2023-02-16T20:53:03.663Z,11.90
2023-02-16T20:55:33.756Z,11.90
2023-02-16T20:58:02.951Z,11.90
2023-02-16T21:00:31.416Z,11.90
2023-02-16T21:03:00.181Z,11.90
2023-02-16T21:05:30.310Z,11.80
2023-02-16T21:07:58.702Z,11.90
2023-02-16T21:10:27.076Z,11.90
2023-02-16T21:12:55.459Z,12.10
2023-02-16T21:15:23.890Z,11.90
2023-02-16T21:17:52.276Z,11.90
2023-02-16T21:20:20.852Z,11.90
2023-02-16T21:22:51.102Z,11.90
2023-02-16T21:25:19.986Z,11.90
2023-02-16T21:27:48.450Z,11.90
2023-02-16T21:30:17.005Z,11.90
2023-02-16T21:32:45.517Z,11.90
2023-02-16T21:35:13.991Z,11.90
2023-02-16T21:37:42.309Z,11.90
2023-02-16T21:40:32.277Z,11.90
2023-02-16T21:43:00.676Z,11.90
2023-02-16T21:45:29.141Z,12.00
2023-02-16T21:48:15.350Z,11.90
2023-02-16T21:50:43.858Z,11.90
2023-02-16T21:53:12.248Z,12.00
2023-02-16T21:55:59.731Z,12.00
2023-02-16T21:58:30.216Z,11.90
2023-02-16T22:01:00.438Z,11.90
2023-02-16T22:03:29.098Z,12.00
2023-02-16T22:05:57.504Z,12.00
2023-02-16T22:08:25.820Z,12.00
2023-02-16T22:10:55.603Z,12.00
2023-02-16T22:13:23.984Z,12.00
2023-02-16T22:15:52.252Z,12.00
2023-02-16T22:18:20.828Z,12.00
2023-02-16T22:20:49.217Z,12.00
2023-02-16T22:23:17.609Z,12.00
2023-02-16T22:25:45.943Z,12.00
2023-02-16T22:28:15.607Z,12.00
2023-02-16T22:30:45.358Z,12.00
2023-02-16T22:33:14.050Z,12.00
2023-02-16T22:35:42.486Z,12.00
2023-02-16T22:38:10.984Z,12.00
2023-02-16T22:40:39.283Z,12.10
2023-02-16T22:43:07.754Z,12.10
2023-02-16T22:45:38.636Z,12.10
2023-02-16T22:48:07.327Z,12.00
2023-02-16T22:50:35.579Z,12.10
2023-02-16T22:53:04.249Z,12.10
2023-02-16T22:55:32.631Z,12.10
2023-02-16T22:58:00.862Z,12.10
2023-02-16T23:00:29.453Z,12.10
2023-02-16T23:02:59.268Z,12.10
2023-02-16T23:05:27.671Z,12.10
2023-02-16T23:07:55.969Z,12.10
2023-02-16T23:10:24.274Z,12.10
2023-02-16T23:12:52.787Z,12.10
2023-02-16T23:15:21.225Z,12.10
2023-02-16T23:17:49.651Z,12.10
2023-02-16T23:20:19.862Z,12.10
2023-02-16T23:22:48.233Z,12.10
2023-02-16T23:25:34.915Z,12.10
2023-02-16T23:28:05.722Z,12.10
2023-02-16T23:30:34.027Z,12.20
2023-02-16T23:33:02.366Z,12.20
2023-02-16T23:35:32.377Z,12.20
2023-02-16T23:38:02.795Z,12.10
2023-02-16T23:40:31.263Z,12.20
2023-02-16T23:42:59.709Z,12.20
2023-02-16T23:45:28.194Z,12.20
2023-02-16T23:47:56.497Z,12.20
2023-02-16T23:50:24.843Z,12.20
2023-02-16T23:52:54.698Z,12.20
2023-02-16T23:55:23.199Z,12.20
2023-02-16T23:57:51.637Z,12.20
